sensor_id;sensor_type;location;lat;lon;timestamp;P1;durP1;ratioP1;P2;durP2;ratioP2
22320;SDS011;11328;53.928;18.522;2022-07-29T00:01:06;13.90;;;5.00;;
22320;SDS011;11328;53.928;18.522;2022-07-29T00:03:44;16.17;;;5.97;;
22320;SDS011;11328;53.928;18.522;2022-07-29T00:06:12;16.55;;;5.88;;
22320;SDS011;11328;53.928;18.522;2022-07-29T00:08:40;17.75;;;6.70;;
22320;SDS011;11328;53.928;18.522;2022-07-29T00:11:07;17.42;;;6.25;;
22320;SDS011;11328;53.928;18.522;2022-07-29T00:13:34;16.88;;;7.03;;
22320;SDS011;11328;53.928;18.522;2022-07-29T00:16:01;19.77;;;6.75;;
22320;SDS011;11328;53.928;18.522;2022-07-29T00:18:30;17.10;;;6.65;;
22320;SDS011;11328;53.928;18.522;2022-07-29T00:20:58;15.13;;;7.25;;
22320;SDS011;11328;53.928;18.522;2022-07-29T00:23:25;15.65;;;7.15;;
22320;SDS011;11328;53.928;18.522;2022-07-29T00:25:52;16.38;;;6.43;;
22320;SDS011;11328;53.928;18.522;2022-07-29T00:28:19;17.58;;;6.53;;
22320;SDS011;11328;53.928;18.522;2022-07-29T00:30:47;17.75;;;6.78;;
22320;SDS011;11328;53.928;18.522;2022-07-29T00:33:14;15.55;;;6.72;;
22320;SDS011;11328;53.928;18.522;2022-07-29T00:35:41;16.42;;;6.45;;
22320;SDS011;11328;53.928;18.522;2022-07-29T00:38:11;16.13;;;6.47;;
22320;SDS011;11328;53.928;18.522;2022-07-29T00:40:40;16.65;;;7.03;;
22320;SDS011;11328;53.928;18.522;2022-07-29T00:43:10;17.30;;;6.65;;
22320;SDS011;11328;53.928;18.522;2022-07-29T00:45:38;13.98;;;6.40;;
22320;SDS011;11328;53.928;18.522;2022-07-29T00:48:05;14.70;;;6.47;;
22320;SDS011;11328;53.928;18.522;2022-07-29T00:50:35;16.17;;;5.65;;
22320;SDS011;11328;53.928;18.522;2022-07-29T00:53:03;15.73;;;5.55;;
22320;SDS011;11328;53.928;18.522;2022-07-29T00:55:33;13.45;;;5.68;;
22320;SDS011;11328;53.928;18.522;2022-07-29T00:58:01;13.18;;;5.20;;
22320;SDS011;11328;53.928;18.522;2022-07-29T01:00:29;15.20;;;5.88;;
22320;SDS011;11328;53.928;18.522;2022-07-29T01:02:56;14.07;;;5.10;;
22320;SDS011;11328;53.928;18.522;2022-07-29T01:05:25;15.82;;;6.07;;
22320;SDS011;11328;53.928;18.522;2022-07-29T01:08:14;16.95;;;6.47;;
22320;SDS011;11328;53.928;18.522;2022-07-29T01:10:42;18.55;;;6.38;;
22320;SDS011;11328;53.928;18.522;2022-07-29T01:13:11;12.60;;;5.78;;
22320;SDS011;11328;53.928;18.522;2022-07-29T01:15:44;12.20;;;5.43;;
22320;SDS011;11328;53.928;18.522;2022-07-29T01:18:30;13.80;;;4.85;;
22320;SDS011;11328;53.928;18.522;2022-07-29T01:29:24;12.50;;;5.05;;
22320;SDS011;11328;53.928;18.522;2022-07-29T01:32:19;17.95;;;5.53;;
22320;SDS011;11328;53.928;18.522;2022-07-29T01:37:46;13.93;;;5.95;;
22320;SDS011;11328;53.928;18.522;2022-07-29T01:40:22;18.48;;;6.93;;
22320;SDS011;11328;53.928;18.522;2022-07-29T01:42:54;16.23;;;6.78;;
22320;SDS011;11328;53.928;18.522;2022-07-29T01:45:33;16.42;;;6.65;;
22320;SDS011;11328;53.928;18.522;2022-07-29T01:56:50;15.35;;;6.20;;
22320;SDS011;11328;53.928;18.522;2022-07-29T01:59:21;21.95;;;7.15;;
22320;SDS011;11328;53.928;18.522;2022-07-29T02:01:53;39.63;;;6.95;;
22320;SDS011;11328;53.928;18.522;2022-07-29T02:04:24;14.57;;;6.75;;
22320;SDS011;11328;53.928;18.522;2022-07-29T02:06:57;14.07;;;6.65;;
22320;SDS011;11328;53.928;18.522;2022-07-29T02:09:30;14.88;;;6.10;;
22320;SDS011;11328;53.928;18.522;2022-07-29T02:12:01;17.02;;;6.18;;
22320;SDS011;11328;53.928;18.522;2022-07-29T02:14:33;15.93;;;5.75;;
22320;SDS011;11328;53.928;18.522;2022-07-29T02:17:06;12.30;;;5.35;;
22320;SDS011;11328;53.928;18.522;2022-07-29T02:19:34;14.90;;;5.55;;
22320;SDS011;11328;53.928;18.522;2022-07-29T02:22:04;11.18;;;5.10;;
22320;SDS011;11328;53.928;18.522;2022-07-29T02:24:32;14.07;;;5.75;;
22320;SDS011;11328;53.928;18.522;2022-07-29T02:27:03;11.25;;;5.25;;
22320;SDS011;11328;53.928;18.522;2022-07-29T02:29:30;11.82;;;5.05;;
22320;SDS011;11328;53.928;18.522;2022-07-29T02:31:59;11.60;;;5.05;;
22320;SDS011;11328;53.928;18.522;2022-07-29T02:34:29;17.45;;;5.68;;
22320;SDS011;11328;53.928;18.522;2022-07-29T02:36:59;14.13;;;5.40;;
22320;SDS011;11328;53.928;18.522;2022-07-29T02:39:27;10.82;;;5.25;;
22320;SDS011;11328;53.928;18.522;2022-07-29T02:41:58;13.43;;;5.35;;
22320;SDS011;11328;53.928;18.522;2022-07-29T02:44:31;13.77;;;5.28;;
22320;SDS011;11328;53.928;18.522;2022-07-29T02:47:20;12.57;;;5.22;;
22320;SDS011;11328;53.928;18.522;2022-07-29T02:53:00;14.63;;;5.90;;
22320;SDS011;11328;53.928;18.522;2022-07-29T02:55:58;10.40;;;4.78;;
22320;SDS011;11328;53.928;18.522;2022-07-29T02:58:31;12.90;;;5.30;;
22320;SDS011;11328;53.928;18.522;2022-07-29T03:01:14;12.85;;;5.20;;
22320;SDS011;11328;53.928;18.522;2022-07-29T03:03:48;15.20;;;5.13;;
22320;SDS011;11328;53.928;18.522;2022-07-29T03:06:20;15.35;;;5.28;;
22320;SDS011;11328;53.928;18.522;2022-07-29T03:09:03;17.02;;;5.60;;
22320;SDS011;11328;53.928;18.522;2022-07-29T03:11:38;14.93;;;5.35;;
22320;SDS011;11328;53.928;18.522;2022-07-29T03:14:18;13.35;;;5.10;;
22320;SDS011;11328;53.928;18.522;2022-07-29T03:16:46;15.48;;;5.60;;
22320;SDS011;11328;53.928;18.522;2022-07-29T03:19:15;13.43;;;5.50;;
22320;SDS011;11328;53.928;18.522;2022-07-29T03:21:44;16.15;;;5.22;;
22320;SDS011;11328;53.928;18.522;2022-07-29T03:24:24;12.13;;;4.80;;
22320;SDS011;11328;53.928;18.522;2022-07-29T03:26:54;17.08;;;5.40;;
22320;SDS011;11328;53.928;18.522;2022-07-29T03:29:22;14.95;;;5.53;;
22320;SDS011;11328;53.928;18.522;2022-07-29T03:31:59;25.88;;;6.35;;
22320;SDS011;11328;53.928;18.522;2022-07-29T03:34:34;20.42;;;5.55;;
22320;SDS011;11328;53.928;18.522;2022-07-29T03:37:04;34.58;;;7.07;;
22320;SDS011;11328;53.928;18.522;2022-07-29T03:39:33;18.45;;;5.95;;
22320;SDS011;11328;53.928;18.522;2022-07-29T03:42:06;15.48;;;5.65;;
22320;SDS011;11328;53.928;18.522;2022-07-29T03:44:36;10.95;;;5.30;;
22320;SDS011;11328;53.928;18.522;2022-07-29T03:47:08;12.57;;;5.32;;
22320;SDS011;11328;53.928;18.522;2022-07-29T03:49:39;13.57;;;5.57;;
22320;SDS011;11328;53.928;18.522;2022-07-29T03:52:10;12.75;;;5.22;;
22320;SDS011;11328;53.928;18.522;2022-07-29T03:54:37;12.75;;;5.35;;
22320;SDS011;11328;53.928;18.522;2022-07-29T03:57:05;13.52;;;5.13;;
22320;SDS011;11328;53.928;18.522;2022-07-29T03:59:33;13.40;;;4.97;;
22320;SDS011;11328;53.928;18.522;2022-07-29T04:02:02;11.00;;;5.07;;
22320;SDS011;11328;53.928;18.522;2022-07-29T04:04:37;12.45;;;5.28;;
22320;SDS011;11328;53.928;18.522;2022-07-29T04:07:04;15.85;;;5.85;;
22320;SDS011;11328;53.928;18.522;2022-07-29T04:09:31;15.23;;;5.65;;
22320;SDS011;11328;53.928;18.522;2022-07-29T04:11:58;16.15;;;5.65;;
22320;SDS011;11328;53.928;18.522;2022-07-29T04:14:29;12.02;;;5.00;;
22320;SDS011;11328;53.928;18.522;2022-07-29T04:17:00;12.18;;;5.00;;
22320;SDS011;11328;53.928;18.522;2022-07-29T04:19:30;13.75;;;5.25;;
22320;SDS011;11328;53.928;18.522;2022-07-29T04:21:59;11.27;;;4.70;;
22320;SDS011;11328;53.928;18.522;2022-07-29T04:24:27;14.65;;;4.80;;
22320;SDS011;11328;53.928;18.522;2022-07-29T04:26:54;14.88;;;4.75;;
22320;SDS011;11328;53.928;18.522;2022-07-29T04:29:24;12.40;;;4.57;;
22320;SDS011;11328;53.928;18.522;2022-07-29T04:31:51;10.77;;;4.38;;
22320;SDS011;11328;53.928;18.522;2022-07-29T04:34:18;13.52;;;4.18;;
22320;SDS011;11328;53.928;18.522;2022-07-29T04:36:46;13.70;;;4.75;;
22320;SDS011;11328;53.928;18.522;2022-07-29T04:39:13;15.90;;;5.30;;
22320;SDS011;11328;53.928;18.522;2022-07-29T04:41:47;13.25;;;5.43;;
22320;SDS011;11328;53.928;18.522;2022-07-29T04:44:17;11.50;;;5.80;;
22320;SDS011;11328;53.928;18.522;2022-07-29T04:46:45;11.38;;;4.80;;
22320;SDS011;11328;53.928;18.522;2022-07-29T04:49:12;12.90;;;5.13;;
22320;SDS011;11328;53.928;18.522;2022-07-29T04:51:39;9.57;;;4.20;;
22320;SDS011;11328;53.928;18.522;2022-07-29T04:54:06;11.05;;;4.40;;
22320;SDS011;11328;53.928;18.522;2022-07-29T04:56:33;8.95;;;3.88;;
22320;SDS011;11328;53.928;18.522;2022-07-29T04:59:00;11.95;;;4.75;;
22320;SDS011;11328;53.928;18.522;2022-07-29T05:01:27;13.15;;;5.20;;
22320;SDS011;11328;53.928;18.522;2022-07-29T05:03:54;12.75;;;4.93;;
22320;SDS011;11328;53.928;18.522;2022-07-29T05:06:25;12.65;;;4.75;;
22320;SDS011;11328;53.928;18.522;2022-07-29T05:08:52;10.27;;;3.60;;
22320;SDS011;11328;53.928;18.522;2022-07-29T05:11:20;10.18;;;4.03;;
22320;SDS011;11328;53.928;18.522;2022-07-29T05:13:52;9.38;;;3.80;;
22320;SDS011;11328;53.928;18.522;2022-07-29T05:16:19;9.15;;;3.85;;
22320;SDS011;11328;53.928;18.522;2022-07-29T05:18:47;7.82;;;3.30;;
22320;SDS011;11328;53.928;18.522;2022-07-29T05:21:14;7.90;;;3.00;;
22320;SDS011;11328;53.928;18.522;2022-07-29T05:23:41;9.13;;;3.10;;
22320;SDS011;11328;53.928;18.522;2022-07-29T05:26:08;6.03;;;2.70;;
22320;SDS011;11328;53.928;18.522;2022-07-29T05:28:35;9.05;;;3.10;;
22320;SDS011;11328;53.928;18.522;2022-07-29T05:31:02;7.07;;;2.50;;
22320;SDS011;11328;53.928;18.522;2022-07-29T05:33:32;7.80;;;2.30;;
22320;SDS011;11328;53.928;18.522;2022-07-29T05:36:02;9.50;;;2.20;;
22320;SDS011;11328;53.928;18.522;2022-07-29T05:38:33;7.60;;;2.33;;
22320;SDS011;11328;53.928;18.522;2022-07-29T05:41:02;12.52;;;2.45;;
22320;SDS011;11328;53.928;18.522;2022-07-29T05:43:32;5.65;;;1.50;;
22320;SDS011;11328;53.928;18.522;2022-07-29T05:45:59;7.22;;;1.70;;
22320;SDS011;11328;53.928;18.522;2022-07-29T05:48:27;3.65;;;1.38;;
22320;SDS011;11328;53.928;18.522;2022-07-29T05:50:54;8.18;;;1.75;;
22320;SDS011;11328;53.928;18.522;2022-07-29T05:53:23;5.75;;;1.55;;
22320;SDS011;11328;53.928;18.522;2022-07-29T05:55:50;3.40;;;1.30;;
22320;SDS011;11328;53.928;18.522;2022-07-29T05:58:18;3.35;;;1.35;;
22320;SDS011;11328;53.928;18.522;2022-07-29T06:00:45;4.18;;;1.50;;
22320;SDS011;11328;53.928;18.522;2022-07-29T06:03:12;5.13;;;1.80;;
22320;SDS011;11328;53.928;18.522;2022-07-29T06:05:39;6.07;;;1.70;;
22320;SDS011;11328;53.928;18.522;2022-07-29T06:08:07;4.82;;;1.75;;
22320;SDS011;11328;53.928;18.522;2022-07-29T06:10:34;5.60;;;1.52;;
22320;SDS011;11328;53.928;18.522;2022-07-29T06:13:01;6.45;;;1.92;;
22320;SDS011;11328;53.928;18.522;2022-07-29T06:15:29;3.65;;;1.60;;
22320;SDS011;11328;53.928;18.522;2022-07-29T06:17:56;4.25;;;1.45;;
22320;SDS011;11328;53.928;18.522;2022-07-29T06:20:26;5.40;;;1.42;;
22320;SDS011;11328;53.928;18.522;2022-07-29T06:22:56;4.15;;;1.50;;
22320;SDS011;11328;53.928;18.522;2022-07-29T06:25:24;3.22;;;1.33;;
22320;SDS011;11328;53.928;18.522;2022-07-29T06:27:55;3.17;;;1.38;;
22320;SDS011;11328;53.928;18.522;2022-07-29T06:30:23;4.35;;;1.40;;
22320;SDS011;11328;53.928;18.522;2022-07-29T06:32:50;6.13;;;1.52;;
22320;SDS011;11328;53.928;18.522;2022-07-29T06:35:18;7.03;;;1.35;;
22320;SDS011;11328;53.928;18.522;2022-07-29T06:38:05;7.05;;;1.30;;
22320;SDS011;11328;53.928;18.522;2022-07-29T06:40:52;7.30;;;1.30;;
22320;SDS011;11328;53.928;18.522;2022-07-29T06:43:33;4.65;;;0.95;;
22320;SDS011;11328;53.928;18.522;2022-07-29T06:46:19;3.85;;;1.10;;
22320;SDS011;11328;53.928;18.522;2022-07-29T06:48:48;3.47;;;0.90;;
22320;SDS011;11328;53.928;18.522;2022-07-29T06:51:17;3.53;;;1.08;;
22320;SDS011;11328;53.928;18.522;2022-07-29T06:53:48;2.88;;;0.82;;
22320;SDS011;11328;53.928;18.522;2022-07-29T06:56:31;2.70;;;1.00;;
22320;SDS011;11328;53.928;18.522;2022-07-29T06:59:09;1.20;;;0.50;;
22320;SDS011;11328;53.928;18.522;2022-07-29T07:01:38;2.20;;;0.70;;
22320;SDS011;11328;53.928;18.522;2022-07-29T07:04:09;1.60;;;0.80;;
22320;SDS011;11328;53.928;18.522;2022-07-29T07:06:38;2.95;;;0.75;;
22320;SDS011;11328;53.928;18.522;2022-07-29T07:09:05;2.78;;;0.82;;
22320;SDS011;11328;53.928;18.522;2022-07-29T07:11:33;2.63;;;0.60;;
22320;SDS011;11328;53.928;18.522;2022-07-29T07:14:00;1.85;;;0.68;;
22320;SDS011;11328;53.928;18.522;2022-07-29T07:16:29;1.50;;;0.60;;
22320;SDS011;11328;53.928;18.522;2022-07-29T07:18:57;3.95;;;0.90;;
22320;SDS011;11328;53.928;18.522;2022-07-29T07:21:25;3.30;;;0.70;;
22320;SDS011;11328;53.928;18.522;2022-07-29T07:23:58;1.48;;;0.52;;
22320;SDS011;11328;53.928;18.522;2022-07-29T07:26:26;0.60;;;0.40;;
22320;SDS011;11328;53.928;18.522;2022-07-29T07:28:56;5.35;;;0.90;;
22320;SDS011;11328;53.928;18.522;2022-07-29T07:31:23;2.58;;;0.68;;
22320;SDS011;11328;53.928;18.522;2022-07-29T07:33:51;2.60;;;0.90;;
22320;SDS011;11328;53.928;18.522;2022-07-29T07:36:19;2.45;;;0.70;;
22320;SDS011;11328;53.928;18.522;2022-07-29T07:38:46;3.58;;;1.02;;
22320;SDS011;11328;53.928;18.522;2022-07-29T07:41:13;5.20;;;0.85;;
22320;SDS011;11328;53.928;18.522;2022-07-29T07:43:40;3.25;;;1.00;;
22320;SDS011;11328;53.928;18.522;2022-07-29T07:46:07;3.95;;;1.20;;
22320;SDS011;11328;53.928;18.522;2022-07-29T07:48:34;2.28;;;0.98;;
22320;SDS011;11328;53.928;18.522;2022-07-29T07:51:02;9.07;;;1.77;;
22320;SDS011;11328;53.928;18.522;2022-07-29T07:53:29;1.77;;;0.85;;
22320;SDS011;11328;53.928;18.522;2022-07-29T07:55:57;2.88;;;1.20;;
22320;SDS011;11328;53.928;18.522;2022-07-29T07:58:36;1.83;;;0.75;;
22320;SDS011;11328;53.928;18.522;2022-07-29T08:01:04;2.35;;;0.80;;
22320;SDS011;11328;53.928;18.522;2022-07-29T08:03:32;2.25;;;0.80;;
22320;SDS011;11328;53.928;18.522;2022-07-29T08:05:59;3.40;;;0.93;;
22320;SDS011;11328;53.928;18.522;2022-07-29T08:08:27;2.40;;;0.90;;
22320;SDS011;11328;53.928;18.522;2022-07-29T08:10:54;2.58;;;1.05;;
22320;SDS011;11328;53.928;18.522;2022-07-29T08:13:23;2.35;;;0.88;;
22320;SDS011;11328;53.928;18.522;2022-07-29T08:15:54;4.87;;;1.10;;
22320;SDS011;11328;53.928;18.522;2022-07-29T08:18:38;5.13;;;1.13;;
22320;SDS011;11328;53.928;18.522;2022-07-29T08:21:07;3.65;;;1.00;;
22320;SDS011;11328;53.928;18.522;2022-07-29T08:23:34;5.18;;;1.20;;
22320;SDS011;11328;53.928;18.522;2022-07-29T08:26:12;2.10;;;0.82;;
22320;SDS011;11328;53.928;18.522;2022-07-29T08:28:41;25.50;;;2.55;;
22320;SDS011;11328;53.928;18.522;2022-07-29T08:31:16;4.50;;;0.98;;
22320;SDS011;11328;53.928;18.522;2022-07-29T08:33:44;11.70;;;1.15;;
22320;SDS011;11328;53.928;18.522;2022-07-29T08:36:11;2.20;;;0.63;;
22320;SDS011;11328;53.928;18.522;2022-07-29T08:38:39;2.50;;;0.73;;
22320;SDS011;11328;53.928;18.522;2022-07-29T08:41:06;3.03;;;0.77;;
22320;SDS011;11328;53.928;18.522;2022-07-29T08:43:33;2.05;;;0.70;;
22320;SDS011;11328;53.928;18.522;2022-07-29T08:46:03;1.27;;;0.65;;
22320;SDS011;11328;53.928;18.522;2022-07-29T08:48:30;1.88;;;0.70;;
22320;SDS011;11328;53.928;18.522;2022-07-29T08:50:59;2.13;;;0.80;;
22320;SDS011;11328;53.928;18.522;2022-07-29T08:53:29;1.27;;;0.68;;
22320;SDS011;11328;53.928;18.522;2022-07-29T08:55:58;2.83;;;0.80;;
22320;SDS011;11328;53.928;18.522;2022-07-29T08:58:26;2.17;;;0.90;;
22320;SDS011;11328;53.928;18.522;2022-07-29T09:01:02;3.58;;;0.77;;
22320;SDS011;11328;53.928;18.522;2022-07-29T09:03:38;3.65;;;1.00;;
22320;SDS011;11328;53.928;18.522;2022-07-29T09:06:07;1.88;;;0.75;;
22320;SDS011;11328;53.928;18.522;2022-07-29T09:08:35;2.72;;;0.82;;
22320;SDS011;11328;53.928;18.522;2022-07-29T09:11:02;2.33;;;0.88;;
22320;SDS011;11328;53.928;18.522;2022-07-29T09:13:30;5.07;;;1.05;;
22320;SDS011;11328;53.928;18.522;2022-07-29T09:15:58;4.22;;;0.93;;
22320;SDS011;11328;53.928;18.522;2022-07-29T09:18:34;9.95;;;1.30;;
22320;SDS011;11328;53.928;18.522;2022-07-29T09:21:05;4.88;;;1.30;;
22320;SDS011;11328;53.928;18.522;2022-07-29T09:24:07;1.98;;;0.82;;
22320;SDS011;11328;53.928;18.522;2022-07-29T09:26:40;4.68;;;0.88;;
22320;SDS011;11328;53.928;18.522;2022-07-29T09:29:10;3.00;;;1.02;;
22320;SDS011;11328;53.928;18.522;2022-07-29T09:31:45;2.00;;;0.95;;
22320;SDS011;11328;53.928;18.522;2022-07-29T09:36:57;2.47;;;1.02;;
22320;SDS011;11328;53.928;18.522;2022-07-29T09:39:35;4.63;;;1.17;;
22320;SDS011;11328;53.928;18.522;2022-07-29T09:42:14;5.78;;;1.13;;
22320;SDS011;11328;53.928;18.522;2022-07-29T09:44:56;13.35;;;1.40;;
22320;SDS011;11328;53.928;18.522;2022-07-29T09:47:27;2.53;;;0.90;;
22320;SDS011;11328;53.928;18.522;2022-07-29T09:50:15;1.73;;;0.60;;
22320;SDS011;11328;53.928;18.522;2022-07-29T09:52:49;3.47;;;0.90;;
22320;SDS011;11328;53.928;18.522;2022-07-29T09:55:19;4.95;;;0.85;;
22320;SDS011;11328;53.928;18.522;2022-07-29T09:57:47;1.42;;;0.68;;
22320;SDS011;11328;53.928;18.522;2022-07-29T10:00:15;2.60;;;1.00;;
22320;SDS011;11328;53.928;18.522;2022-07-29T10:02:48;2.80;;;1.20;;
22320;SDS011;11328;53.928;18.522;2022-07-29T10:05:18;4.03;;;0.90;;
22320;SDS011;11328;53.928;18.522;2022-07-29T10:07:57;3.15;;;1.02;;
22320;SDS011;11328;53.928;18.522;2022-07-29T10:13:00;4.03;;;1.15;;
22320;SDS011;11328;53.928;18.522;2022-07-29T10:15:37;4.63;;;1.20;;
22320;SDS011;11328;53.928;18.522;2022-07-29T10:18:09;6.63;;;1.52;;
22320;SDS011;11328;53.928;18.522;2022-07-29T10:20:39;19.00;;;1.73;;
22320;SDS011;11328;53.928;18.522;2022-07-29T10:23:08;10.10;;;1.98;;
22320;SDS011;11328;53.928;18.522;2022-07-29T10:25:35;3.88;;;1.30;;
22320;SDS011;11328;53.928;18.522;2022-07-29T10:28:03;5.18;;;2.20;;
22320;SDS011;11328;53.928;18.522;2022-07-29T10:30:32;7.97;;;1.42;;
22320;SDS011;11328;53.928;18.522;2022-07-29T10:35:52;3.10;;;1.10;;
22320;SDS011;11328;53.928;18.522;2022-07-29T10:42:21;4.20;;;1.08;;
22320;SDS011;11328;53.928;18.522;2022-07-29T10:44:45;5.55;;;1.33;;
22320;SDS011;11328;53.928;18.522;2022-07-29T10:47:26;2.63;;;0.73;;
22320;SDS011;11328;53.928;18.522;2022-07-29T10:49:58;1.77;;;1.00;;
22320;SDS011;11328;53.928;18.522;2022-07-29T10:58:16;3.08;;;0.80;;
22320;SDS011;11328;53.928;18.522;2022-07-29T11:00:52;2.42;;;0.93;;
22320;SDS011;11328;53.928;18.522;2022-07-29T11:06:16;5.07;;;1.00;;
22320;SDS011;11328;53.928;18.522;2022-07-29T11:11:45;3.67;;;0.90;;
22320;SDS011;11328;53.928;18.522;2022-07-29T11:14:17;5.90;;;1.02;;
22320;SDS011;11328;53.928;18.522;2022-07-29T11:17:23;20.88;;;1.75;;
22320;SDS011;11328;53.928;18.522;2022-07-29T11:19:50;4.70;;;1.20;;
22320;SDS011;11328;53.928;18.522;2022-07-29T11:22:33;2.38;;;0.80;;
22320;SDS011;11328;53.928;18.522;2022-07-29T11:25:15;2.95;;;1.10;;
22320;SDS011;11328;53.928;18.522;2022-07-29T11:37:44;9.68;;;1.33;;
22320;SDS011;11328;53.928;18.522;2022-07-29T11:40:23;5.72;;;1.10;;
22320;SDS011;11328;53.928;18.522;2022-07-29T11:42:51;3.13;;;0.90;;
22320;SDS011;11328;53.928;18.522;2022-07-29T11:45:19;2.75;;;0.88;;
22320;SDS011;11328;53.928;18.522;2022-07-29T11:52:52;21.55;;;1.65;;
22320;SDS011;11328;53.928;18.522;2022-07-29T11:55:22;4.82;;;0.80;;
22320;SDS011;11328;53.928;18.522;2022-07-29T11:57:59;2.55;;;0.90;;
22320;SDS011;11328;53.928;18.522;2022-07-29T12:00:47;1.88;;;0.70;;
22320;SDS011;11328;53.928;18.522;2022-07-29T12:03:24;4.00;;;0.90;;
22320;SDS011;11328;53.928;18.522;2022-07-29T12:06:01;3.20;;;0.75;;
22320;SDS011;11328;53.928;18.522;2022-07-29T12:09:08;0.82;;;0.68;;
22320;SDS011;11328;53.928;18.522;2022-07-29T12:11:39;53.72;;;4.28;;
22320;SDS011;11328;53.928;18.522;2022-07-29T12:14:23;2.72;;;0.90;;
22320;SDS011;11328;53.928;18.522;2022-07-29T12:16:55;1.70;;;0.70;;
22320;SDS011;11328;53.928;18.522;2022-07-29T12:19:24;95.38;;;5.75;;
22320;SDS011;11328;53.928;18.522;2022-07-29T12:21:53;2.47;;;0.70;;
22320;SDS011;11328;53.928;18.522;2022-07-29T12:24:26;13.68;;;1.20;;
22320;SDS011;11328;53.928;18.522;2022-07-29T12:27:10;1.40;;;0.80;;
22320;SDS011;11328;53.928;18.522;2022-07-29T12:29:39;2.88;;;0.90;;
22320;SDS011;11328;53.928;18.522;2022-07-29T12:32:12;2.60;;;0.77;;
22320;SDS011;11328;53.928;18.522;2022-07-29T12:34:45;2.93;;;0.90;;
22320;SDS011;11328;53.928;18.522;2022-07-29T12:37:12;2.15;;;0.70;;
22320;SDS011;11328;53.928;18.522;2022-07-29T12:39:39;2.55;;;0.63;;
22320;SDS011;11328;53.928;18.522;2022-07-29T12:42:10;3.55;;;0.80;;
22320;SDS011;11328;53.928;18.522;2022-07-29T12:44:47;2.50;;;0.63;;
22320;SDS011;11328;53.928;18.522;2022-07-29T12:47:16;2.05;;;0.75;;
22320;SDS011;11328;53.928;18.522;2022-07-29T12:49:45;0.73;;;0.47;;
22320;SDS011;11328;53.928;18.522;2022-07-29T12:52:26;4.05;;;1.00;;
22320;SDS011;11328;53.928;18.522;2022-07-29T12:54:59;3.75;;;0.70;;
22320;SDS011;11328;53.928;18.522;2022-07-29T12:57:28;2.33;;;1.08;;
22320;SDS011;11328;53.928;18.522;2022-07-29T12:59:59;2.28;;;0.90;;
22320;SDS011;11328;53.928;18.522;2022-07-29T13:02:36;4.18;;;0.68;;
22320;SDS011;11328;53.928;18.522;2022-07-29T13:05:05;2.58;;;0.50;;
22320;SDS011;11328;53.928;18.522;2022-07-29T13:07:34;5.72;;;0.63;;
22320;SDS011;11328;53.928;18.522;2022-07-29T13:10:21;1.73;;;0.50;;
22320;SDS011;11328;53.928;18.522;2022-07-29T13:15:32;6.97;;;0.60;;
22320;SDS011;11328;53.928;18.522;2022-07-29T13:18:00;1.52;;;0.63;;
22320;SDS011;11328;53.928;18.522;2022-07-29T13:20:28;1.42;;;0.63;;
22320;SDS011;11328;53.928;18.522;2022-07-29T13:22:57;9.57;;;0.70;;
22320;SDS011;11328;53.928;18.522;2022-07-29T13:25:27;1.35;;;0.50;;
22320;SDS011;11328;53.928;18.522;2022-07-29T13:27:58;2.92;;;0.80;;
22320;SDS011;11328;53.928;18.522;2022-07-29T13:30:26;2.17;;;0.70;;
22320;SDS011;11328;53.928;18.522;2022-07-29T13:32:53;25.90;;;1.85;;
22320;SDS011;11328;53.928;18.522;2022-07-29T13:35:21;3.50;;;0.93;;
22320;SDS011;11328;53.928;18.522;2022-07-29T13:37:48;5.05;;;0.57;;
22320;SDS011;11328;53.928;18.522;2022-07-29T13:40:17;2.03;;;0.80;;
22320;SDS011;11328;53.928;18.522;2022-07-29T13:42:44;6.35;;;1.85;;
22320;SDS011;11328;53.928;18.522;2022-07-29T13:45:12;5.95;;;0.80;;
22320;SDS011;11328;53.928;18.522;2022-07-29T13:47:39;0.95;;;0.52;;
22320;SDS011;11328;53.928;18.522;2022-07-29T13:50:14;5.10;;;0.68;;
22320;SDS011;11328;53.928;18.522;2022-07-29T13:52:41;1.38;;;0.55;;
22320;SDS011;11328;53.928;18.522;2022-07-29T13:55:09;2.47;;;0.70;;
22320;SDS011;11328;53.928;18.522;2022-07-29T13:57:36;2.58;;;0.70;;
22320;SDS011;11328;53.928;18.522;2022-07-29T14:00:03;0.70;;;0.55;;
22320;SDS011;11328;53.928;18.522;2022-07-29T14:02:31;2.20;;;0.60;;
22320;SDS011;11328;53.928;18.522;2022-07-29T14:04:59;2.55;;;0.80;;
22320;SDS011;11328;53.928;18.522;2022-07-29T14:07:33;7.22;;;1.10;;
22320;SDS011;11328;53.928;18.522;2022-07-29T14:10:00;2.15;;;0.73;;
22320;SDS011;11328;53.928;18.522;2022-07-29T14:12:27;4.60;;;0.80;;
22320;SDS011;11328;53.928;18.522;2022-07-29T14:14:54;0.88;;;0.50;;
22320;SDS011;11328;53.928;18.522;2022-07-29T14:17:21;3.47;;;0.63;;
22320;SDS011;11328;53.928;18.522;2022-07-29T14:19:49;25.20;;;1.90;;
22320;SDS011;11328;53.928;18.522;2022-07-29T14:22:16;7.10;;;0.80;;
22320;SDS011;11328;53.928;18.522;2022-07-29T14:24:48;2.55;;;0.70;;
22320;SDS011;11328;53.928;18.522;2022-07-29T14:27:15;3.42;;;0.77;;
22320;SDS011;11328;53.928;18.522;2022-07-29T14:29:42;5.55;;;0.77;;
22320;SDS011;11328;53.928;18.522;2022-07-29T14:32:09;3.50;;;0.55;;
22320;SDS011;11328;53.928;18.522;2022-07-29T14:34:37;8.15;;;1.10;;
22320;SDS011;11328;53.928;18.522;2022-07-29T14:37:05;6.13;;;0.85;;
22320;SDS011;11328;53.928;18.522;2022-07-29T14:39:33;2.90;;;0.90;;
22320;SDS011;11328;53.928;18.522;2022-07-29T14:42:08;2.90;;;0.90;;
22320;SDS011;11328;53.928;18.522;2022-07-29T14:44:39;5.85;;;1.30;;
22320;SDS011;11328;53.928;18.522;2022-07-29T14:47:07;5.93;;;1.85;;
22320;SDS011;11328;53.928;18.522;2022-07-29T14:49:35;10.65;;;1.25;;
22320;SDS011;11328;53.928;18.522;2022-07-29T14:52:02;7.50;;;0.68;;
22320;SDS011;11328;53.928;18.522;2022-07-29T14:54:30;2.35;;;0.77;;
22320;SDS011;11328;53.928;18.522;2022-07-29T14:56:58;4.75;;;0.70;;
22320;SDS011;11328;53.928;18.522;2022-07-29T14:59:26;8.65;;;1.23;;
22320;SDS011;11328;53.928;18.522;2022-07-29T15:01:53;5.55;;;1.40;;
22320;SDS011;11328;53.928;18.522;2022-07-29T15:04:20;5.45;;;0.80;;
22320;SDS011;11328;53.928;18.522;2022-07-29T15:06:48;12.32;;;1.45;;
22320;SDS011;11328;53.928;18.522;2022-07-29T15:09:15;13.48;;;1.33;;
22320;SDS011;11328;53.928;18.522;2022-07-29T15:11:42;1.50;;;0.70;;
22320;SDS011;11328;53.928;18.522;2022-07-29T15:14:10;9.10;;;1.48;;
22320;SDS011;11328;53.928;18.522;2022-07-29T15:16:37;6.43;;;1.10;;
22320;SDS011;11328;53.928;18.522;2022-07-29T15:19:11;5.55;;;1.10;;
22320;SDS011;11328;53.928;18.522;2022-07-29T15:21:39;10.10;;;1.23;;
22320;SDS011;11328;53.928;18.522;2022-07-29T15:24:14;15.68;;;1.40;;
22320;SDS011;11328;53.928;18.522;2022-07-29T15:26:44;7.93;;;1.13;;
22320;SDS011;11328;53.928;18.522;2022-07-29T15:29:12;4.10;;;0.80;;
22320;SDS011;11328;53.928;18.522;2022-07-29T15:31:39;3.63;;;0.80;;
22320;SDS011;11328;53.928;18.522;2022-07-29T15:34:09;7.97;;;1.05;;
22320;SDS011;11328;53.928;18.522;2022-07-29T15:36:37;3.40;;;1.00;;
22320;SDS011;11328;53.928;18.522;2022-07-29T15:39:20;8.65;;;1.38;;
22320;SDS011;11328;53.928;18.522;2022-07-29T15:41:48;6.75;;;0.85;;
22320;SDS011;11328;53.928;18.522;2022-07-29T15:44:16;2.03;;;0.55;;
22320;SDS011;11328;53.928;18.522;2022-07-29T15:46:46;17.60;;;1.55;;
22320;SDS011;11328;53.928;18.522;2022-07-29T15:49:36;2.78;;;0.85;;
22320;SDS011;11328;53.928;18.522;2022-07-29T15:52:16;4.55;;;0.70;;
22320;SDS011;11328;53.928;18.522;2022-07-29T15:54:52;34.88;;;3.00;;